createdAt,value
2019-05-06T16:32:15.121Z,11.59
2019-05-06T16:34:43.086Z,11.50
2019-05-06T16:37:09.827Z,11.40
2019-05-06T16:39:36.562Z,11.37
2019-05-06T16:42:03.878Z,11.34
2019-05-06T16:44:31.087Z,11.29
2019-05-06T16:46:57.974Z,11.22
2019-05-06T16:49:24.553Z,11.15
2019-05-06T16:51:53.332Z,11.11
2019-05-06T16:54:20.173Z,11.07
2019-05-06T16:56:55.607Z,11.05
2019-05-06T16:59:23.833Z,11.02
2019-05-06T17:01:52.300Z,11.01
2019-05-06T17:04:26.645Z,10.98
2019-05-06T17:06:53.547Z,10.98
2019-05-06T17:09:23.894Z,10.98
2019-05-06T17:11:49.051Z,10.98
2019-05-06T17:14:15.742Z,10.95
2019-05-06T17:16:43.281Z,10.91
2019-05-06T17:19:09.926Z,10.85
2019-05-06T17:21:36.455Z,10.84
2019-05-06T17:24:13.447Z,10.80
2019-05-06T17:26:42.417Z,10.78
2019-05-06T17:29:26.121Z,10.72
2019-05-06T17:32:02.532Z,10.69
2019-05-06T17:34:32.193Z,10.63
2019-05-06T17:37:04.528Z,10.59
2019-05-06T17:39:32.698Z,10.58
2019-05-06T17:41:59.942Z,10.54
2019-05-06T17:44:26.476Z,10.49
2019-05-06T17:47:07.503Z,10.44
2019-05-06T17:49:34.550Z,10.44
2019-05-06T17:52:07.041Z,10.41
2019-05-06T17:54:33.723Z,10.41
2019-05-06T17:57:03.859Z,10.38
2019-05-06T17:59:29.153Z,10.35
2019-05-06T18:01:58.703Z,10.13
2019-05-06T18:04:25.786Z,10.31
2019-05-06T18:06:56.276Z,10.29
2019-05-06T18:09:23.170Z,10.28
2019-05-06T18:11:58.481Z,10.26
2019-05-06T18:14:20.084Z,10.25
2019-05-06T18:16:46.824Z,10.22
2019-05-06T18:19:13.403Z,10.22
2019-05-06T18:21:40.112Z,10.19
2019-05-06T18:24:09.687Z,10.19
2019-05-06T18:26:35.413Z,10.18
2019-05-06T18:29:02.661Z,10.17
2019-05-06T18:31:29.273Z,10.15
2019-05-06T18:33:55.921Z,10.14
2019-05-06T18:36:22.861Z,10.10
2019-05-06T18:38:49.489Z,10.07
2019-05-06T18:41:16.240Z,10.06
2019-05-06T18:43:42.915Z,10.03
2019-05-06T18:46:11.675Z,10.01
2019-05-06T18:48:38.331Z,9.97
2019-05-06T18:51:04.929Z,9.96
2019-05-06T18:53:33.248Z,9.93
2019-05-06T18:56:03.067Z,9.91
2019-05-06T18:58:30.612Z,9.90
2019-05-06T19:00:57.236Z,9.85
2019-05-06T19:03:25.631Z,9.84
2019-05-06T19:05:53.027Z,9.83
2019-05-06T19:08:33.202Z,9.82
2019-05-06T19:10:59.938Z,9.81
2019-05-06T19:13:26.584Z,9.79
2019-05-06T19:15:53.425Z,9.78
2019-05-06T19:18:22.379Z,9.75
2019-05-06T19:20:48.734Z,9.75
2019-05-06T19:23:15.413Z,9.74
2019-05-06T19:25:42.851Z,9.73
2019-05-06T19:28:09.518Z,9.71
2019-05-06T19:30:36.307Z,9.70
2019-05-06T19:33:03.222Z,9.68
2019-05-06T19:35:32.353Z,9.67
2019-05-06T19:37:59.544Z,9.63
2019-05-06T19:40:26.109Z,9.63
2019-05-06T19:42:53.398Z,9.62
2019-05-06T19:45:22.465Z,9.58
2019-05-06T19:47:49.351Z,9.56
2019-05-06T19:50:21.016Z,9.54
2019-05-06T19:52:46.638Z,9.53
2019-05-06T19:55:13.433Z,9.52
2019-05-06T19:57:40.241Z,9.51
2019-05-06T20:00:07.589Z,9.50
2019-05-06T20:02:34.253Z,9.47
2019-05-06T20:05:05.739Z,9.45
2019-05-06T20:08:04.289Z,9.42
2019-05-06T20:10:49.462Z,9.40
2019-05-06T20:13:16.177Z,9.38
2019-05-06T20:15:42.980Z,9.34
2019-05-06T20:18:10.140Z,9.30
2019-05-06T20:20:36.956Z,9.28
2019-05-06T20:23:03.965Z,9.26
2019-05-06T20:25:32.601Z,9.23
2019-05-06T20:27:59.263Z,9.18
2019-05-06T20:30:27.093Z,9.14
2019-05-06T20:32:53.846Z,9.14
2019-05-06T20:35:23.780Z,9.09
2019-05-06T20:37:50.793Z,9.06
2019-05-06T20:40:17.561Z,8.99
2019-05-06T20:42:44.313Z,8.99
2019-05-06T20:45:12.804Z,8.93
2019-05-06T20:47:39.641Z,8.92
2019-05-06T20:50:07.152Z,8.88
2019-05-06T20:52:33.847Z,8.85
2019-05-06T20:55:02.781Z,8.81
2019-05-06T20:57:29.529Z,8.77
2019-05-06T20:59:56.259Z,8.72
2019-05-06T21:02:25.570Z,8.67
2019-05-06T21:04:51.886Z,8.64
2019-05-06T21:07:18.620Z,8.57
2019-05-06T21:09:45.250Z,8.52
2019-05-06T21:12:11.890Z,8.48
2019-05-06T21:14:38.580Z,8.42
2019-05-06T21:17:05.432Z,8.40
2019-05-06T21:19:33.107Z,8.36
2019-05-06T21:22:02.195Z,8.33
2019-05-06T21:24:28.709Z,8.34
2019-05-06T21:26:55.372Z,8.32
2019-05-06T21:29:23.265Z,8.31
2019-05-06T21:31:50.046Z,8.30
2019-05-06T21:34:16.729Z,8.31
2019-05-06T21:36:43.268Z,8.30
2019-05-06T21:39:10.189Z,8.30
2019-05-06T21:41:36.823Z,8.29
2019-05-06T21:44:03.724Z,8.29
2019-05-06T21:46:31.910Z,8.27
2019-05-06T21:48:58.979Z,8.25
2019-05-06T21:51:25.667Z,8.24
2019-05-06T21:53:52.197Z,8.21
2019-05-06T21:56:18.848Z,8.17
2019-05-06T21:58:45.485Z,8.14
2019-05-06T22:01:12.642Z,8.08
2019-05-06T22:03:43.197Z,8.04
2019-05-06T22:06:10.092Z,7.99
2019-05-06T22:08:36.629Z,7.94
2019-05-06T22:11:03.616Z,7.88
2019-05-06T22:13:30.283Z,7.83
2019-05-06T22:15:56.935Z,7.78
2019-05-06T22:18:23.685Z,7.74
2019-05-06T22:21:13.556Z,7.68
2019-05-06T22:24:08.770Z,7.66
2019-05-06T22:26:35.301Z,7.58
2019-05-06T22:29:02.401Z,7.53
2019-05-06T22:31:28.933Z,7.47
2019-05-06T22:33:55.700Z,7.43
2019-05-06T22:36:22.998Z,7.38
2019-05-06T22:38:49.650Z,7.34
2019-05-06T22:41:16.464Z,7.31
2019-05-06T22:43:43.102Z,7.27
2019-05-06T22:46:09.699Z,7.25
2019-05-06T22:48:36.333Z,7.26
2019-05-06T22:51:03.151Z,7.24
2019-05-06T22:53:29.798Z,7.23
2019-05-06T22:55:58.872Z,7.23
2019-05-06T22:58:25.496Z,7.22
2019-05-06T23:00:53.728Z,7.20
2019-05-06T23:03:22.794Z,7.19
2019-05-06T23:05:49.347Z,7.16
2019-05-06T23:08:16.012Z,7.14
2019-05-06T23:10:42.669Z,7.11
2019-05-06T23:13:09.229Z,7.07
2019-05-06T23:15:35.763Z,7.02
2019-05-06T23:18:02.462Z,7.00
2019-05-06T23:20:29.038Z,6.96
2019-05-06T23:22:55.571Z,6.91
2019-05-06T23:25:22.275Z,6.90
2019-05-06T23:27:48.809Z,6.87
2019-05-06T23:30:15.526Z,6.85
2019-05-06T23:32:42.387Z,6.82
2019-05-06T23:35:09.078Z,6.79
2019-05-06T23:38:12.638Z,6.75
2019-05-06T23:41:16.180Z,6.71
2019-05-06T23:44:19.756Z,6.66
2019-05-06T23:47:23.441Z,6.60
2019-05-06T23:50:27.268Z,6.56
2019-05-06T23:53:32.548Z,6.49
2019-05-06T23:56:35.824Z,6.43
2019-05-06T23:59:02.579Z,6.36
